sensor_id;sensor_type;location;lat;lon;timestamp;P1;durP1;ratioP1;P2;durP2;ratioP2
26530;SDS011;14201;43.188;24.160;2022-08-04T00:01:07;6.22;;;2.70;;
26530;SDS011;14201;43.188;24.160;2022-08-04T00:03:45;5.72;;;2.67;;
26530;SDS011;14201;43.188;24.160;2022-08-04T00:06:36;6.50;;;2.53;;
26530;SDS011;14201;43.188;24.160;2022-08-04T00:11:53;5.28;;;2.20;;
26530;SDS011;14201;43.188;24.160;2022-08-04T00:14:22;5.43;;;2.35;;
26530;SDS011;14201;43.188;24.160;2022-08-04T00:16:48;3.92;;;2.28;;
26530;SDS011;14201;43.188;24.160;2022-08-04T00:19:23;7.18;;;2.67;;
26530;SDS011;14201;43.188;24.160;2022-08-04T00:22:02;4.35;;;2.88;;
26530;SDS011;14201;43.188;24.160;2022-08-04T00:24:29;5.22;;;2.65;;
26530;SDS011;14201;43.188;24.160;2022-08-04T00:26:56;4.85;;;2.55;;
26530;SDS011;14201;43.188;24.160;2022-08-04T00:29:22;4.13;;;2.28;;
26530;SDS011;14201;43.188;24.160;2022-08-04T00:31:49;2.30;;;2.10;;
26530;SDS011;14201;43.188;24.160;2022-08-04T00:34:15;8.18;;;2.85;;
26530;SDS011;14201;43.188;24.160;2022-08-04T00:36:43;3.92;;;2.60;;
26530;SDS011;14201;43.188;24.160;2022-08-04T00:39:12;3.97;;;2.67;;
26530;SDS011;14201;43.188;24.160;2022-08-04T00:44:53;5.30;;;2.58;;
26530;SDS011;14201;43.188;24.160;2022-08-04T00:47:39;3.30;;;2.33;;
26530;SDS011;14201;43.188;24.160;2022-08-04T00:50:23;7.00;;;2.78;;
26530;SDS011;14201;43.188;24.160;2022-08-04T00:53:05;5.47;;;2.88;;
26530;SDS011;14201;43.188;24.160;2022-08-04T01:16:57;7.57;;;2.75;;
26530;SDS011;14201;43.188;24.160;2022-08-04T01:30:45;4.55;;;2.63;;
26530;SDS011;14201;43.188;24.160;2022-08-04T01:33:13;3.22;;;2.58;;
26530;SDS011;14201;43.188;24.160;2022-08-04T01:35:43;6.07;;;3.08;;
26530;SDS011;14201;43.188;24.160;2022-08-04T01:40:52;5.30;;;2.72;;
26530;SDS011;14201;43.188;24.160;2022-08-04T01:43:19;5.95;;;2.78;;
26530;SDS011;14201;43.188;24.160;2022-08-04T01:45:49;4.70;;;2.90;;
26530;SDS011;14201;43.188;24.160;2022-08-04T01:48:25;5.85;;;3.05;;
26530;SDS011;14201;43.188;24.160;2022-08-04T01:50:52;4.60;;;2.92;;
26530;SDS011;14201;43.188;24.160;2022-08-04T01:53:20;3.38;;;2.30;;
26530;SDS011;14201;43.188;24.160;2022-08-04T01:55:50;2.65;;;2.25;;
26530;SDS011;14201;43.188;24.160;2022-08-04T01:58:17;3.92;;;2.60;;
26530;SDS011;14201;43.188;24.160;2022-08-04T02:00:48;6.70;;;2.80;;
26530;SDS011;14201;43.188;24.160;2022-08-04T02:03:20;4.22;;;2.67;;
26530;SDS011;14201;43.188;24.160;2022-08-04T02:05:46;4.25;;;2.88;;
26530;SDS011;14201;43.188;24.160;2022-08-04T02:08:25;6.40;;;2.70;;
26530;SDS011;14201;43.188;24.160;2022-08-04T02:11:13;3.63;;;2.50;;
26530;SDS011;14201;43.188;24.160;2022-08-04T02:16:48;5.10;;;3.20;;
26530;SDS011;14201;43.188;24.160;2022-08-04T02:21:59;4.10;;;2.90;;
26530;SDS011;14201;43.188;24.160;2022-08-04T02:24:29;5.43;;;3.15;;
26530;SDS011;14201;43.188;24.160;2022-08-04T02:26:56;3.85;;;2.63;;
26530;SDS011;14201;43.188;24.160;2022-08-04T02:29:39;5.68;;;3.03;;
26530;SDS011;14201;43.188;24.160;2022-08-04T02:32:28;5.07;;;3.20;;
26530;SDS011;14201;43.188;24.160;2022-08-04T02:35:17;4.28;;;2.92;;
26530;SDS011;14201;43.188;24.160;2022-08-04T02:37:55;3.50;;;2.67;;
26530;SDS011;14201;43.188;24.160;2022-08-04T02:40:30;4.25;;;3.20;;
26530;SDS011;14201;43.188;24.160;2022-08-04T02:42:56;4.30;;;3.40;;
26530;SDS011;14201;43.188;24.160;2022-08-04T02:45:24;5.13;;;3.08;;
26530;SDS011;14201;43.188;24.160;2022-08-04T02:47:50;4.50;;;3.08;;
26530;SDS011;14201;43.188;24.160;2022-08-04T02:50:19;5.78;;;3.30;;
26530;SDS011;14201;43.188;24.160;2022-08-04T02:52:46;3.17;;;2.78;;
26530;SDS011;14201;43.188;24.160;2022-08-04T02:55:14;3.50;;;2.97;;
26530;SDS011;14201;43.188;24.160;2022-08-04T02:57:41;5.88;;;3.08;;
26530;SDS011;14201;43.188;24.160;2022-08-04T03:00:12;4.03;;;3.08;;
26530;SDS011;14201;43.188;24.160;2022-08-04T03:05:20;5.13;;;2.90;;
26530;SDS011;14201;43.188;24.160;2022-08-04T03:16:23;4.20;;;2.78;;
26530;SDS011;14201;43.188;24.160;2022-08-04T03:27:09;4.35;;;2.90;;
26530;SDS011;14201;43.188;24.160;2022-08-04T03:40:39;4.25;;;2.83;;
26530;SDS011;14201;43.188;24.160;2022-08-04T03:44:07;4.50;;;3.17;;
26530;SDS011;14201;43.188;24.160;2022-08-04T03:55:22;3.10;;;2.72;;
26530;SDS011;14201;43.188;24.160;2022-08-04T04:11:30;5.93;;;2.58;;
26530;SDS011;14201;43.188;24.160;2022-08-04T04:26:15;4.32;;;3.00;;
26530;SDS011;14201;43.188;24.160;2022-08-04T04:37:11;9.45;;;3.08;;
26530;SDS011;14201;43.188;24.160;2022-08-04T04:44:58;5.82;;;2.67;;
26530;SDS011;14201;43.188;24.160;2022-08-04T04:50:20;5.65;;;2.92;;
26530;SDS011;14201;43.188;24.160;2022-08-04T04:52:54;3.53;;;2.55;;
26530;SDS011;14201;43.188;24.160;2022-08-04T04:55:27;4.47;;;2.83;;
26530;SDS011;14201;43.188;24.160;2022-08-04T04:57:59;4.78;;;2.88;;
26530;SDS011;14201;43.188;24.160;2022-08-04T05:00:42;8.13;;;2.75;;
26530;SDS011;14201;43.188;24.160;2022-08-04T05:14:05;6.60;;;2.40;;
26530;SDS011;14201;43.188;24.160;2022-08-04T05:16:53;9.65;;;3.00;;
26530;SDS011;14201;43.188;24.160;2022-08-04T05:19:39;4.90;;;2.50;;
26530;SDS011;14201;43.188;24.160;2022-08-04T05:22:21;6.38;;;2.40;;
26530;SDS011;14201;43.188;24.160;2022-08-04T05:24:51;8.45;;;2.13;;
26530;SDS011;14201;43.188;24.160;2022-08-04T05:27:27;7.32;;;2.85;;
26530;SDS011;14201;43.188;24.160;2022-08-04T05:30:03;8.50;;;2.00;;
26530;SDS011;14201;43.188;24.160;2022-08-04T05:32:31;8.52;;;2.30;;
26530;SDS011;14201;43.188;24.160;2022-08-04T05:35:14;4.40;;;1.98;;
26530;SDS011;14201;43.188;24.160;2022-08-04T05:37:46;5.57;;;2.60;;
26530;SDS011;14201;43.188;24.160;2022-08-04T05:40:15;3.70;;;2.20;;
26530;SDS011;14201;43.188;24.160;2022-08-04T05:42:43;3.95;;;1.77;;
26530;SDS011;14201;43.188;24.160;2022-08-04T05:45:08;4.40;;;2.10;;
26530;SDS011;14201;43.188;24.160;2022-08-04T05:47:35;3.92;;;1.98;;
26530;SDS011;14201;43.188;24.160;2022-08-04T05:50:02;3.42;;;1.90;;
26530;SDS011;14201;43.188;24.160;2022-08-04T05:52:30;5.78;;;2.05;;
26530;SDS011;14201;43.188;24.160;2022-08-04T05:54:58;3.50;;;1.90;;
26530;SDS011;14201;43.188;24.160;2022-08-04T05:57:25;3.45;;;1.85;;
26530;SDS011;14201;43.188;24.160;2022-08-04T05:59:52;5.38;;;1.60;;
26530;SDS011;14201;43.188;24.160;2022-08-04T06:02:21;6.07;;;1.88;;
26530;SDS011;14201;43.188;24.160;2022-08-04T06:04:49;2.95;;;1.70;;
26530;SDS011;14201;43.188;24.160;2022-08-04T06:07:16;3.10;;;1.75;;
26530;SDS011;14201;43.188;24.160;2022-08-04T06:09:42;5.82;;;1.90;;
26530;SDS011;14201;43.188;24.160;2022-08-04T06:12:10;6.13;;;1.70;;
26530;SDS011;14201;43.188;24.160;2022-08-04T06:15:02;2.70;;;1.83;;
26530;SDS011;14201;43.188;24.160;2022-08-04T06:17:33;3.35;;;1.83;;
26530;SDS011;14201;43.188;24.160;2022-08-04T06:20:02;2.88;;;1.60;;
26530;SDS011;14201;43.188;24.160;2022-08-04T06:22:32;2.83;;;1.67;;
26530;SDS011;14201;43.188;24.160;2022-08-04T06:25:00;5.07;;;2.10;;
26530;SDS011;14201;43.188;24.160;2022-08-04T06:27:27;3.70;;;1.55;;
26530;SDS011;14201;43.188;24.160;2022-08-04T06:29:54;7.35;;;2.03;;
26530;SDS011;14201;43.188;24.160;2022-08-04T06:32:22;3.92;;;2.03;;
26530;SDS011;14201;43.188;24.160;2022-08-04T06:35:01;7.43;;;1.90;;
26530;SDS011;14201;43.188;24.160;2022-08-04T06:37:28;6.28;;;1.90;;
26530;SDS011;14201;43.188;24.160;2022-08-04T06:57:07;3.60;;;2.00;;
26530;SDS011;14201;43.188;24.160;2022-08-04T06:59:35;5.78;;;1.80;;
26530;SDS011;14201;43.188;24.160;2022-08-04T07:02:01;4.35;;;1.95;;
26530;SDS011;14201;43.188;24.160;2022-08-04T07:04:27;8.02;;;2.05;;
26530;SDS011;14201;43.188;24.160;2022-08-04T07:06:53;9.20;;;2.15;;
26530;SDS011;14201;43.188;24.160;2022-08-04T07:11:45;5.80;;;2.10;;
26530;SDS011;14201;43.188;24.160;2022-08-04T07:14:13;3.38;;;1.80;;
26530;SDS011;14201;43.188;24.160;2022-08-04T07:16:41;4.40;;;1.83;;
26530;SDS011;14201;43.188;24.160;2022-08-04T07:19:08;6.68;;;1.90;;
26530;SDS011;14201;43.188;24.160;2022-08-04T07:21:33;3.95;;;1.83;;
26530;SDS011;14201;43.188;24.160;2022-08-04T07:38:39;7.53;;;2.08;;
26530;SDS011;14201;43.188;24.160;2022-08-04T07:41:06;3.63;;;1.80;;
26530;SDS011;14201;43.188;24.160;2022-08-04T07:43:32;8.23;;;2.10;;
26530;SDS011;14201;43.188;24.160;2022-08-04T07:46:00;3.63;;;1.73;;
26530;SDS011;14201;43.188;24.160;2022-08-04T07:48:25;3.50;;;1.75;;
26530;SDS011;14201;43.188;24.160;2022-08-04T07:50:51;9.15;;;2.10;;
26530;SDS011;14201;43.188;24.160;2022-08-04T07:53:17;4.60;;;1.75;;
26530;SDS011;14201;43.188;24.160;2022-08-04T07:55:44;5.10;;;1.55;;
26530;SDS011;14201;43.188;24.160;2022-08-04T07:58:10;6.55;;;1.73;;
26530;SDS011;14201;43.188;24.160;2022-08-04T08:00:36;2.42;;;1.30;;
26530;SDS011;14201;43.188;24.160;2022-08-04T08:03:02;2.90;;;1.50;;
26530;SDS011;14201;43.188;24.160;2022-08-04T08:05:28;5.72;;;1.67;;
26530;SDS011;14201;43.188;24.160;2022-08-04T08:07:54;4.68;;;1.40;;
26530;SDS011;14201;43.188;24.160;2022-08-04T08:10:22;4.60;;;1.60;;
26530;SDS011;14201;43.188;24.160;2022-08-04T10:02:14;2.70;;;1.38;;
26530;SDS011;14201;43.188;24.160;2022-08-04T10:04:43;13.57;;;2.13;;
26530;SDS011;14201;43.188;24.160;2022-08-04T10:07:34;2.17;;;1.38;;
26530;SDS011;14201;43.188;24.160;2022-08-04T10:10:33;2.53;;;1.40;;
26530;SDS011;14201;43.188;24.160;2022-08-04T10:24:12;2.30;;;1.48;;
26530;SDS011;14201;43.188;24.160;2022-08-04T10:29:46;2.50;;;1.25;;
26530;SDS011;14201;43.188;24.160;2022-08-04T10:35:12;4.43;;;1.40;;
26530;SDS011;14201;43.188;24.160;2022-08-04T10:38:00;2.70;;;1.40;;
26530;SDS011;14201;43.188;24.160;2022-08-04T10:40:35;16.55;;;1.50;;
26530;SDS011;14201;43.188;24.160;2022-08-04T10:43:15;2.13;;;1.30;;
26530;SDS011;14201;43.188;24.160;2022-08-04T10:45:47;1.88;;;1.40;;
26530;SDS011;14201;43.188;24.160;2022-08-04T10:51:14;3.65;;;1.30;;
26530;SDS011;14201;43.188;24.160;2022-08-04T10:53:45;2.95;;;1.40;;
26530;SDS011;14201;43.188;24.160;2022-08-04T10:58:59;3.63;;;1.30;;
26530;SDS011;14201;43.188;24.160;2022-08-04T11:01:30;4.55;;;1.33;;
26530;SDS011;14201;43.188;24.160;2022-08-04T11:04:00;4.07;;;1.63;;
26530;SDS011;14201;43.188;24.160;2022-08-04T11:06:32;6.25;;;1.60;;
26530;SDS011;14201;43.188;24.160;2022-08-04T11:09:00;1.92;;;1.40;;
26530;SDS011;14201;43.188;24.160;2022-08-04T11:11:40;11.47;;;1.80;;
26530;SDS011;14201;43.188;24.160;2022-08-04T11:14:14;3.53;;;1.70;;
26530;SDS011;14201;43.188;24.160;2022-08-04T11:16:45;2.72;;;1.40;;
26530;SDS011;14201;43.188;24.160;2022-08-04T11:22:03;3.38;;;1.40;;
26530;SDS011;14201;43.188;24.160;2022-08-04T11:27:24;5.57;;;1.80;;
26530;SDS011;14201;43.188;24.160;2022-08-04T11:30:04;2.47;;;1.70;;
26530;SDS011;14201;43.188;24.160;2022-08-04T11:35:26;1.92;;;1.70;;
26530;SDS011;14201;43.188;24.160;2022-08-04T11:38:11;2.17;;;1.60;;
26530;SDS011;14201;43.188;24.160;2022-08-04T11:40:46;2.57;;;1.57;;
26530;SDS011;14201;43.188;24.160;2022-08-04T11:43:21;3.67;;;1.73;;
26530;SDS011;14201;43.188;24.160;2022-08-04T11:45:55;3.55;;;1.52;;
26530;SDS011;14201;43.188;24.160;2022-08-04T11:50:53;1.92;;;1.45;;
26530;SDS011;14201;43.188;24.160;2022-08-04T11:53:22;2.03;;;1.60;;
26530;SDS011;14201;43.188;24.160;2022-08-04T11:55:51;2.17;;;1.30;;
26530;SDS011;14201;43.188;24.160;2022-08-04T11:58:19;3.17;;;1.27;;
26530;SDS011;14201;43.188;24.160;2022-08-04T12:09:11;4.25;;;1.70;;
26530;SDS011;14201;43.188;24.160;2022-08-04T12:14:42;3.03;;;1.20;;
26530;SDS011;14201;43.188;24.160;2022-08-04T12:17:24;3.20;;;1.30;;
26530;SDS011;14201;43.188;24.160;2022-08-04T12:20:00;4.50;;;1.30;;
26530;SDS011;14201;43.188;24.160;2022-08-04T12:22:33;2.58;;;1.20;;
26530;SDS011;14201;43.188;24.160;2022-08-04T12:25:03;3.00;;;1.30;;
26530;SDS011;14201;43.188;24.160;2022-08-04T12:27:48;3.03;;;1.30;;
26530;SDS011;14201;43.188;24.160;2022-08-04T12:30:18;2.73;;;1.30;;
26530;SDS011;14201;43.188;24.160;2022-08-04T12:32:50;2.00;;;1.40;;
26530;SDS011;14201;43.188;24.160;2022-08-04T12:35:26;7.20;;;1.50;;
26530;SDS011;14201;43.188;24.160;2022-08-04T12:38:04;5.18;;;1.27;;
26530;SDS011;14201;43.188;24.160;2022-08-04T12:40:38;4.15;;;1.17;;
26530;SDS011;14201;43.188;24.160;2022-08-04T12:45:56;25.25;;;2.20;;
26530;SDS011;14201;43.188;24.160;2022-08-04T12:48:24;2.58;;;1.15;;
26530;SDS011;14201;43.188;24.160;2022-08-04T12:50:53;2.20;;;1.20;;
26530;SDS011;14201;43.188;24.160;2022-08-04T12:53:37;1.77;;;1.20;;
26530;SDS011;14201;43.188;24.160;2022-08-04T12:56:05;17.67;;;1.92;;
26530;SDS011;14201;43.188;24.160;2022-08-04T12:58:37;5.45;;;1.30;;
26530;SDS011;14201;43.188;24.160;2022-08-04T13:01:07;2.40;;;1.35;;
26530;SDS011;14201;43.188;24.160;2022-08-04T13:06:06;21.80;;;2.42;;
26530;SDS011;14201;43.188;24.160;2022-08-04T13:08:35;4.80;;;1.67;;
26530;SDS011;14201;43.188;24.160;2022-08-04T13:11:04;3.67;;;1.20;;
26530;SDS011;14201;43.188;24.160;2022-08-04T13:13:33;1.70;;;1.20;;
26530;SDS011;14201;43.188;24.160;2022-08-04T13:18:32;2.65;;;1.40;;
26530;SDS011;14201;43.188;24.160;2022-08-04T13:21:34;9.25;;;1.73;;
26530;SDS011;14201;43.188;24.160;2022-08-04T13:24:01;3.83;;;1.30;;
26530;SDS011;14201;43.188;24.160;2022-08-04T13:26:30;2.00;;;1.38;;
26530;SDS011;14201;43.188;24.160;2022-08-04T13:28:58;3.95;;;1.38;;
26530;SDS011;14201;43.188;24.160;2022-08-04T13:31:27;1.42;;;1.20;;
26530;SDS011;14201;43.188;24.160;2022-08-04T13:33:54;5.70;;;1.50;;
26530;SDS011;14201;43.188;24.160;2022-08-04T13:36:29;2.50;;;1.33;;
26530;SDS011;14201;43.188;24.160;2022-08-04T13:38:57;5.85;;;1.60;;
26530;SDS011;14201;43.188;24.160;2022-08-04T13:41:26;1.60;;;1.25;;
26530;SDS011;14201;43.188;24.160;2022-08-04T13:43:55;3.55;;;1.30;;
26530;SDS011;14201;43.188;24.160;2022-08-04T13:46:31;5.47;;;1.30;;
26530;SDS011;14201;43.188;24.160;2022-08-04T13:49:00;8.90;;;1.70;;
26530;SDS011;14201;43.188;24.160;2022-08-04T13:51:31;4.00;;;1.52;;
26530;SDS011;14201;43.188;24.160;2022-08-04T13:53:59;9.77;;;1.60;;
26530;SDS011;14201;43.188;24.160;2022-08-04T13:56:32;7.53;;;1.48;;
26530;SDS011;14201;43.188;24.160;2022-08-04T13:59:05;2.67;;;1.23;;
26530;SDS011;14201;43.188;24.160;2022-08-04T14:01:35;2.22;;;1.50;;
26530;SDS011;14201;43.188;24.160;2022-08-04T14:06:44;3.40;;;1.40;;
26530;SDS011;14201;43.188;24.160;2022-08-04T14:09:16;12.52;;;1.70;;
26530;SDS011;14201;43.188;24.160;2022-08-04T14:11:45;1.95;;;1.35;;
26530;SDS011;14201;43.188;24.160;2022-08-04T14:16:53;2.85;;;1.33;;
26530;SDS011;14201;43.188;24.160;2022-08-04T14:19:20;3.03;;;1.50;;
26530;SDS011;14201;43.188;24.160;2022-08-04T14:26:46;7.28;;;1.27;;
26530;SDS011;14201;43.188;24.160;2022-08-04T14:29:13;4.05;;;1.55;;
26530;SDS011;14201;43.188;24.160;2022-08-04T14:31:40;4.75;;;1.20;;
26530;SDS011;14201;43.188;24.160;2022-08-04T14:34:07;3.95;;;1.45;;
26530;SDS011;14201;43.188;24.160;2022-08-04T14:36:37;1.58;;;1.20;;
26530;SDS011;14201;43.188;24.160;2022-08-04T15:06:24;4.40;;;1.73;;
26530;SDS011;14201;43.188;24.160;2022-08-04T15:08:52;3.30;;;2.05;;
26530;SDS011;14201;43.188;24.160;2022-08-04T15:11:20;4.70;;;2.10;;
26530;SDS011;14201;43.188;24.160;2022-08-04T15:13:46;5.30;;;1.70;;
26530;SDS011;14201;43.188;24.160;2022-08-04T15:16:12;9.77;;;2.00;;
26530;SDS011;14201;43.188;24.160;2022-08-04T15:18:39;3.00;;;1.40;;
26530;SDS011;14201;43.188;24.160;2022-08-04T15:21:06;2.83;;;1.35;;
26530;SDS011;14201;43.188;24.160;2022-08-04T15:23:32;4.70;;;1.77;;
26530;SDS011;14201;43.188;24.160;2022-08-04T15:25:59;5.13;;;2.00;;
26530;SDS011;14201;43.188;24.160;2022-08-04T15:49:28;4.70;;;1.60;;
26530;SDS011;14201;43.188;24.160;2022-08-04T16:02:43;2.85;;;1.60;;
26530;SDS011;14201;43.188;24.160;2022-08-04T16:12:58;10.93;;;1.92;;
26530;SDS011;14201;43.188;24.160;2022-08-04T16:16:01;5.95;;;1.42;;
26530;SDS011;14201;43.188;24.160;2022-08-04T16:20:46;5.10;;;1.70;;
26530;SDS011;14201;43.188;24.160;2022-08-04T16:25:54;3.10;;;1.58;;
26530;SDS011;14201;43.188;24.160;2022-08-04T16:31:08;2.58;;;1.38;;
26530;SDS011;14201;43.188;24.160;2022-08-04T16:33:36;2.20;;;1.55;;
26530;SDS011;14201;43.188;24.160;2022-08-04T16:36:05;4.20;;;1.63;;
26530;SDS011;14201;43.188;24.160;2022-08-04T16:38:51;2.47;;;1.45;;
26530;SDS011;14201;43.188;24.160;2022-08-04T16:41:46;2.42;;;1.55;;
26530;SDS011;14201;43.188;24.160;2022-08-04T16:47:04;2.97;;;1.73;;
26530;SDS011;14201;43.188;24.160;2022-08-04T16:49:31;2.92;;;1.50;;
26530;SDS011;14201;43.188;24.160;2022-08-04T16:52:01;2.42;;;1.70;;
26530;SDS011;14201;43.188;24.160;2022-08-04T16:54:31;1.88;;;1.50;;
26530;SDS011;14201;43.188;24.160;2022-08-04T16:56:59;4.07;;;1.27;;
26530;SDS011;14201;43.188;24.160;2022-08-04T16:59:25;13.18;;;2.15;;
26530;SDS011;14201;43.188;24.160;2022-08-04T17:01:52;9.07;;;1.83;;
26530;SDS011;14201;43.188;24.160;2022-08-04T17:04:36;8.60;;;1.88;;
26530;SDS011;14201;43.188;24.160;2022-08-04T17:07:03;6.50;;;1.88;;
26530;SDS011;14201;43.188;24.160;2022-08-04T17:09:30;6.10;;;1.42;;
26530;SDS011;14201;43.188;24.160;2022-08-04T17:11:57;3.47;;;1.80;;
26530;SDS011;14201;43.188;24.160;2022-08-04T17:14:27;5.43;;;1.50;;
26530;SDS011;14201;43.188;24.160;2022-08-04T17:16:58;2.88;;;1.70;;
26530;SDS011;14201;43.188;24.160;2022-08-04T17:19:25;3.15;;;1.38;;
26530;SDS011;14201;43.188;24.160;2022-08-04T17:21:52;7.60;;;1.65;;
26530;SDS011;14201;43.188;24.160;2022-08-04T17:24:20;4.18;;;1.70;;
26530;SDS011;14201;43.188;24.160;2022-08-04T17:26:46;1.88;;;1.50;;
26530;SDS011;14201;43.188;24.160;2022-08-04T17:29:12;2.35;;;1.80;;
26530;SDS011;14201;43.188;24.160;2022-08-04T17:31:38;6.82;;;1.92;;
26530;SDS011;14201;43.188;24.160;2022-08-04T17:34:13;3.53;;;1.70;;
26530;SDS011;14201;43.188;24.160;2022-08-04T17:36:40;9.93;;;2.08;;
26530;SDS011;14201;43.188;24.160;2022-08-04T17:39:11;2.72;;;1.77;;
26530;SDS011;14201;43.188;24.160;2022-08-04T17:41:45;3.95;;;1.77;;
26530;SDS011;14201;43.188;24.160;2022-08-04T17:44:11;7.38;;;1.75;;
26530;SDS011;14201;43.188;24.160;2022-08-04T17:49:19;6.05;;;1.63;;
26530;SDS011;14201;43.188;24.160;2022-08-04T17:54:16;4.10;;;1.80;;
26530;SDS011;14201;43.188;24.160;2022-08-04T17:56:45;9.82;;;2.28;;
26530;SDS011;14201;43.188;24.160;2022-08-04T17:59:20;5.32;;;2.00;;
26530;SDS011;14201;43.188;24.160;2022-08-04T18:02:04;4.25;;;1.85;;
26530;SDS011;14201;43.188;24.160;2022-08-04T18:07:13;6.03;;;2.28;;
26530;SDS011;14201;43.188;24.160;2022-08-04T18:09:39;7.28;;;2.40;;
26530;SDS011;14201;43.188;24.160;2022-08-04T18:12:09;4.28;;;2.35;;
26530;SDS011;14201;43.188;24.160;2022-08-04T18:14:37;3.60;;;1.90;;
26530;SDS011;14201;43.188;24.160;2022-08-04T18:17:14;9.18;;;2.25;;
26530;SDS011;14201;43.188;24.160;2022-08-04T18:19:59;7.97;;;2.42;;
26530;SDS011;14201;43.188;24.160;2022-08-04T18:22:26;6.70;;;2.55;;
26530;SDS011;14201;43.188;24.160;2022-08-04T18:24:51;7.22;;;2.70;;
26530;SDS011;14201;43.188;24.160;2022-08-04T18:27:18;6.82;;;2.35;;
26530;SDS011;14201;43.188;24.160;2022-08-04T18:29:46;3.65;;;2.15;;
26530;SDS011;14201;43.188;24.160;2022-08-04T18:32:11;5.32;;;2.10;;
26530;SDS011;14201;43.188;24.160;2022-08-04T18:34:37;6.07;;;2.10;;
26530;SDS011;14201;43.188;24.160;2022-08-04T18:37:03;7.47;;;2.30;;
26530;SDS011;14201;43.188;24.160;2022-08-04T18:39:28;7.60;;;2.58;;
26530;SDS011;14201;43.188;24.160;2022-08-04T18:41:54;6.07;;;2.53;;
26530;SDS011;14201;43.188;24.160;2022-08-04T18:44:21;6.75;;;1.90;;
26530;SDS011;14201;43.188;24.160;2022-08-04T18:46:47;10.45;;;2.22;;
26530;SDS011;14201;43.188;24.160;2022-08-04T18:49:13;2.45;;;1.92;;
26530;SDS011;14201;43.188;24.160;2022-08-04T18:51:39;5.20;;;1.80;;
26530;SDS011;14201;43.188;24.160;2022-08-04T18:54:05;8.50;;;2.50;;
26530;SDS011;14201;43.188;24.160;2022-08-04T18:56:31;3.33;;;2.40;;
26530;SDS011;14201;43.188;24.160;2022-08-04T18:58:58;3.65;;;2.45;;
26530;SDS011;14201;43.188;24.160;2022-08-04T19:01:28;4.55;;;1.95;;
26530;SDS011;14201;43.188;24.160;2022-08-04T19:03:54;8.57;;;2.47;;
26530;SDS011;14201;43.188;24.160;2022-08-04T19:06:20;2.63;;;2.03;;
26530;SDS011;14201;43.188;24.160;2022-08-04T19:08:46;6.95;;;2.35;;
26530;SDS011;14201;43.188;24.160;2022-08-04T19:11:12;3.47;;;2.30;;
26530;SDS011;14201;43.188;24.160;2022-08-04T19:13:40;5.95;;;2.38;;
26530;SDS011;14201;43.188;24.160;2022-08-04T19:16:05;5.45;;;2.28;;
26530;SDS011;14201;43.188;24.160;2022-08-04T19:18:33;5.32;;;2.50;;
26530;SDS011;14201;43.188;24.160;2022-08-04T19:20:58;4.07;;;2.17;;
26530;SDS011;14201;43.188;24.160;2022-08-04T19:23:25;4.60;;;2.22;;
26530;SDS011;14201;43.188;24.160;2022-08-04T19:25:51;6.95;;;2.58;;
26530;SDS011;14201;43.188;24.160;2022-08-04T19:28:17;10.45;;;2.38;;
26530;SDS011;14201;43.188;24.160;2022-08-04T19:30:43;6.28;;;2.40;;
26530;SDS011;14201;43.188;24.160;2022-08-04T19:33:09;6.85;;;3.15;;
26530;SDS011;14201;43.188;24.160;2022-08-04T19:35:35;5.68;;;2.50;;
26530;SDS011;14201;43.188;24.160;2022-08-04T19:38:05;4.82;;;2.35;;
26530;SDS011;14201;43.188;24.160;2022-08-04T19:40:30;4.63;;;2.33;;
26530;SDS011;14201;43.188;24.160;2022-08-04T19:42:56;4.38;;;2.22;;
26530;SDS011;14201;43.188;24.160;2022-08-04T19:45:22;4.55;;;2.47;;
26530;SDS011;14201;43.188;24.160;2022-08-04T19:47:47;5.63;;;2.05;;
26530;SDS011;14201;43.188;24.160;2022-08-04T19:50:13;10.35;;;2.78;;
26530;SDS011;14201;43.188;24.160;2022-08-04T19:52:39;6.80;;;2.70;;
26530;SDS011;14201;43.188;24.160;2022-08-04T19:55:05;9.02;;;2.80;;
26530;SDS011;14201;43.188;24.160;2022-08-04T19:57:32;4.20;;;3.10;;
26530;SDS011;14201;43.188;24.160;2022-08-04T19:59:57;6.28;;;2.70;;
26530;SDS011;14201;43.188;24.160;2022-08-04T20:02:23;6.85;;;3.05;;
26530;SDS011;14201;43.188;24.160;2022-08-04T20:04:48;5.70;;;3.00;;
26530;SDS011;14201;43.188;24.160;2022-08-04T20:07:14;5.68;;;3.08;;
26530;SDS011;14201;43.188;24.160;2022-08-04T20:09:40;4.18;;;2.75;;
26530;SDS011;14201;43.188;24.160;2022-08-04T20:12:05;9.07;;;3.10;;
26530;SDS011;14201;43.188;24.160;2022-08-04T20:14:31;9.25;;;2.97;;
26530;SDS011;14201;43.188;24.160;2022-08-04T20:16:57;10.32;;;2.95;;
26530;SDS011;14201;43.188;24.160;2022-08-04T20:19:22;5.20;;;2.95;;
26530;SDS011;14201;43.188;24.160;2022-08-04T20:21:49;7.45;;;2.80;;
26530;SDS011;14201;43.188;24.160;2022-08-04T20:24:15;5.75;;;2.72;;
26530;SDS011;14201;43.188;24.160;2022-08-04T20:26:40;6.35;;;2.80;;
26530;SDS011;14201;43.188;24.160;2022-08-04T20:29:06;8.05;;;2.88;;
26530;SDS011;14201;43.188;24.160;2022-08-04T20:31:33;6.82;;;3.28;;
26530;SDS011;14201;43.188;24.160;2022-08-04T20:33:58;5.53;;;3.08;;
26530;SDS011;14201;43.188;24.160;2022-08-04T20:36:24;4.05;;;2.63;;
26530;SDS011;14201;43.188;24.160;2022-08-04T20:38:50;5.10;;;2.60;;
26530;SDS011;14201;43.188;24.160;2022-08-04T20:41:16;7.70;;;2.72;;
26530;SDS011;14201;43.188;24.160;2022-08-04T20:43:42;6.90;;;2.80;;
26530;SDS011;14201;43.188;24.160;2022-08-04T20:46:07;7.20;;;2.92;;
26530;SDS011;14201;43.188;24.160;2022-08-04T20:48:33;6.13;;;2.80;;
26530;SDS011;14201;43.188;24.160;2022-08-04T20:51:00;6.68;;;3.10;;
26530;SDS011;14201;43.188;24.160;2022-08-04T20:53:26;3.38;;;2.97;;
26530;SDS011;14201;43.188;24.160;2022-08-04T20:55:51;3.95;;;2.67;;
26530;SDS011;14201;43.188;24.160;2022-08-04T20:58:17;5.40;;;2.92;;
26530;SDS011;14201;43.188;24.160;2022-08-04T21:00:43;4.57;;;2.88;;
26530;SDS011;14201;43.188;24.160;2022-08-04T21:03:08;4.03;;;3.10;;
26530;SDS011;14201;43.188;24.160;2022-08-04T21:05:34;5.85;;;3.20;;
26530;SDS011;14201;43.188;24.160;2022-08-04T21:07:59;5.55;;;2.97;;
26530;SDS011;14201;43.188;24.160;2022-08-04T21:10:25;7.85;;;2.78;;
26530;SDS011;14201;43.188;24.160;2022-08-04T21:12:51;8.95;;;2.95;;
26530;SDS011;14201;43.188;24.160;2022-08-04T21:15:18;13.68;;;3.10;;
26530;SDS011;14201;43.188;24.160;2022-08-04T21:17:43;7.45;;;2.70;;
26530;SDS011;14201;43.188;24.160;2022-08-04T21:20:10;5.38;;;3.50;;
26530;SDS011;14201;43.188;24.160;2022-08-04T21:22:37;6.90;;;3.30;;
26530;SDS011;14201;43.188;24.160;2022-08-04T21:25:02;8.20;;;3.30;;
26530;SDS011;14201;43.188;24.160;2022-08-04T21:27:28;8.20;;;4.90;;
26530;SDS011;14201;43.188;24.160;2022-08-04T21:29:54;6.15;;;4.20;;
26530;SDS011;14201;43.188;24.160;2022-08-04T21:32:19;8.98;;;4.38;;
26530;SDS011;14201;43.188;24.160;2022-08-04T21:34:45;6.43;;;2.85;;
26530;SDS011;14201;43.188;24.160;2022-08-04T21:37:10;4.68;;;3.20;;
26530;SDS011;14201;43.188;24.160;2022-08-04T21:39:37;5.45;;;3.08;;
26530;SDS011;14201;43.188;24.160;2022-08-04T21:42:03;8.40;;;3.05;;
26530;SDS011;14201;43.188;24.160;2022-08-04T21:44:29;4.88;;;3.17;;
26530;SDS011;14201;43.188;24.160;2022-08-04T21:46:55;4.50;;;3.25;;
26530;SDS011;14201;43.188;24.160;2022-08-04T21:49:20;7.18;;;3.55;;
26530;SDS011;14201;43.188;24.160;2022-08-04T21:51:46;5.65;;;3.47;;
26530;SDS011;14201;43.188;24.160;2022-08-04T21:54:11;4.38;;;3.58;;
26530;SDS011;14201;43.188;24.160;2022-08-04T21:56:37;3.75;;;2.88;;
26530;SDS011;14201;43.188;24.160;2022-08-04T21:59:02;6.75;;;3.40;;
26530;SDS011;14201;43.188;24.160;2022-08-04T22:01:28;4.10;;;2.97;;